Report METAR

 

KSJC - San Jose, California, USA
Distance from station: NE 14km
Dati ricevuti: 22/07/2024 21:53
Sereno
Sereno
 Vento da ONO
Vento: ONO 11 km/h
Temperatura: 31°C
Indice di Calore: 31°C
P.to Rugiada: 16°C
Umidità: 40%
Barometro: 1010.5 hPa
Nuvole: Sereno
Visibility: 16 km
2024/07/22 19:53 KSJC 221953Z 30006KT 10SM CLR 31/16 A2984 RMK AO2 SLP102 T03060156
KNUQ - Moffett Nas/Mtn, California, USA
Distance from station: N 14km
Dati ricevuti: 22/07/2024 22:30
Sereno
Sereno
 Vento da N
Vento: N 13 km/h
Temperatura: 27°C
Indice di Calore: 28°C
P.to Rugiada: 16°C
Umidità: 51%
Barometro: 1010.5 hPa
Nuvole: Sereno
Visibility: 14 km
2024/07/22 20:30 KNUQ 222030Z AUTO 35007KT 9SM CLR 27/16 A2984 RMK AO2
 
KPAO - Palo Alto, California, USA
Distance from station: NNO 23km
Dati ricevuti: 22/07/2024 22:47
Sereno
Sereno
 Vento da N
Vento: N 15 km/h
Temperatura: 26°C
P.to Rugiada: 17°C
Umidità: 58%
Barometro: 1010.5 hPa
Nuvole: Sereno
Visibility: 16 km
2024/07/22 20:47 KPAO 222047Z 35008KT 10SM SKC 26/17 A2984
KRHV - San Jose/Reid, California, USA
Distance from station: ENE 19km
Dati ricevuti: 22/07/2024 22:47
Sereno
Sereno
 Vento da NE
Vento: NE 6 km/h
Temperatura: 32°C
P.to Rugiada: 13°C
Umidità: 31%
Barometro: 1010.2 hPa
Nuvole: Sereno
Visibility: 16 km
2024/07/22 20:47 KRHV 222047Z 04003KT 10SM SKC 32/13 A2983
 
KOAK - Oakland, California, USA
Distance from station: NNO 50km
Dati ricevuti: 22/07/2024 21:53
Sereno
Sereno
 Vento da ONO
Vento: ONO 15 km/h
Temperatura: 25°C
P.to Rugiada: 14°C
Umidità: 51%
Barometro: 1011.2 hPa
Nuvole: Sereno
Visibility: 16 km
2024/07/22 19:53 KOAK 221953Z 29008KT 10SM CLR 25/14 A2986 RMK AO2 SLP110 T02500139
KSQL - San Carlos Airpo, California, USA
Distance from station: NO 34km
Dati ricevuti: 22/07/2024 22:47
Sereno
Sereno
 Vento da NNO
Vento: NNO 19 km/h
Temperatura: 25°C
P.to Rugiada: 16°C
Umidità: 57%
Barometro: 1010.8 hPa
Nuvole: Sereno
Visibility: 16 km
2024/07/22 20:47 KSQL 222047Z 34010KT 10SM CLR 25/16 A2985
 
KSFO - San Francisco, California, USA
Distance from station: NO 49km
Dati ricevuti: 22/07/2024 21:56
Sereno
Sereno
 Vento da N
Vento: N 15 km/h
Temperatura: 21°C
P.to Rugiada: 15°C
Umidità: 69%
Barometro: 1011.2 hPa
Nuvole: Sereno
Visibility: 16 km
2024/07/22 19:56 KSFO 221956Z 01008KT 10SM CLR 21/15 A2986 RMK AO2 SLP110 T02110150
KE16 - San Martin, California, USA
Distance from station: ESE 43km
Dati ricevuti: 22/07/2024 22:35
Sereno
Sereno
 Vento da SE
Vento: SE 9 km/h
Temperatura: 29°C
P.to Rugiada: 13°C
Umidità: 37%
Barometro: 1011.2 hPa
Nuvole: Sereno
Visibility: 16 km
2024/07/22 20:35 KE16 222035Z AUTO 13005KT 10SM CLR 29/13 A2986 RMK AO2 PWINO PNO AWOS IS NOTAMED OS 07-22-2024 1800 TO 07-23-2024 0100 HRS UTC
 
KWVI - Watsonville, California, USA
Distance from station: SSE 44km
Dati ricevuti: 22/07/2024 21:53
Sereno
Sereno
 Vento da SO
Vento: SO 19 km/h
Temperatura: 21°C
P.to Rugiada: 13°C
Umidità: 60%
Barometro: 1012.5 hPa
Nuvole: Sereno
Visibility: 16 km
2024/07/22 19:53 KWVI 221953Z AUTO 23010KT 10SM CLR 21/13 A2990 RMK AO2 SLP124 T02060128
KHAF - Half Moon Bay, California, USA
Distance from station: ONO 50km
Dati ricevuti: 22/07/2024 22:35
Few Clouds
Few Clouds
 Vento da SSE
Vento: SSE 17 km/h
Temperatura: 15°C
P.to Rugiada: 13°C
Umidità: 88%
Barometro: 1012.2 hPa
Nuvole: Few Clouds
Visibility: 14 km
Cloud details: Few Clouds 152 m
2024/07/22 20:35 KHAF 222035Z AUTO 16009KT 9SM FEW005 15/13 A2989 RMK AO2
 
KHWD - Hayward, California, USA
Distance from station: N 44km
Dati ricevuti: 22/07/2024 21:54
Sereno
Sereno
 Vento da O
Vento: O 11 km/h
Temperatura: 25°C
P.to Rugiada: 14°C
Umidità: 51%
Barometro: 1010.8 hPa
Nuvole: Sereno
Visibility: 16 km
2024/07/22 19:54 KHWD 221954Z 27006KT 10SM CLR 25/14 A2985 RMK AO2 SLP117 T02500144
KLVK - Livermore, California, USA
Distance from station: NNE 51km
Dati ricevuti: 22/07/2024 21:53
Sereno
Sereno
 Vento da OSO
Vento: OSO 7 km/h
Temperatura: 34°C
P.to Rugiada: 13°C
Umidità: 28%
Barometro: 1010.2 hPa
Nuvole: Sereno
Visibility: 16 km
2024/07/22 19:53 KLVK 221953Z 24004KT 10SM CLR 34/13 A2983 RMK AO2 SLP094 T03440133